CheckWX is a tool to help pilots better visualize weather data.  It is not intended as a substitute for an official pre-flight weather briefing.

13:07:13 UTC

VTPP TAF
Phitsanulok Airport
Thailand
TAF VTPP 271700Z 2718/2818 18005KT 9999 SCT025 TEMPO 2808/2815 18015G30KT 4000 TSRA FEW018CB BKN025

May-27@
18:00 UTC

May-27 @ 18:00 UTC

May-28@
18:00 UTC

May-28 @ 18:00 UTC

TAF VTPP 271700Z 2718/2818 18005KT 9999 SCT025
Wind
  • 180° at 5 KTS
Cloud Levels
  • Scattered at 2,500' AGL

May-28@
08:00 UTC

May-28 @ 08:00 UTC

May-28@
15:00 UTC

May-28 @ 15:00 UTC

TEMPO 2808/2815 18015G30KT 4000 TSRA FEW018CB BKN025

Temporary

Temporary Changes expected for less than half the time period

Wind
  • 180° at 15 KTS
  • {Gusting to 30 KTS
Conditions
Thunderstorm, Rain
Cloud Levels
  • Few at 1,800' AGL
  • Broken at 2,500' AGL